sensor_id;sensor_type;location;lat;lon;timestamp;P1;durP1;ratioP1;P2;durP2;ratioP2
25381;SDS011;16307;42.896;20.874;2023-07-30T00:02:36;6.95;;;4.32;;
25381;SDS011;16307;42.896;20.874;2023-07-30T00:05:22;5.60;;;3.78;;
25381;SDS011;16307;42.896;20.874;2023-07-30T00:08:08;5.05;;;4.00;;
25381;SDS011;16307;42.896;20.874;2023-07-30T00:10:56;8.20;;;4.15;;
25381;SDS011;16307;42.896;20.874;2023-07-30T00:13:43;7.47;;;4.10;;
25381;SDS011;16307;42.896;20.874;2023-07-30T00:16:29;5.63;;;3.97;;
25381;SDS011;16307;42.896;20.874;2023-07-30T00:19:15;6.05;;;3.90;;
25381;SDS011;16307;42.896;20.874;2023-07-30T00:22:01;6.90;;;4.30;;
25381;SDS011;16307;42.896;20.874;2023-07-30T00:24:47;7.13;;;4.35;;
25381;SDS011;16307;42.896;20.874;2023-07-30T00:27:33;6.30;;;4.15;;
25381;SDS011;16307;42.896;20.874;2023-07-30T00:30:19;5.97;;;4.30;;
25381;SDS011;16307;42.896;20.874;2023-07-30T00:33:05;6.32;;;4.35;;
25381;SDS011;16307;42.896;20.874;2023-07-30T00:35:51;7.18;;;4.10;;
25381;SDS011;16307;42.896;20.874;2023-07-30T00:38:38;5.75;;;4.10;;
25381;SDS011;16307;42.896;20.874;2023-07-30T00:41:24;6.40;;;4.22;;
25381;SDS011;16307;42.896;20.874;2023-07-30T00:44:10;6.13;;;4.28;;
25381;SDS011;16307;42.896;20.874;2023-07-30T00:46:56;6.13;;;4.10;;
25381;SDS011;16307;42.896;20.874;2023-07-30T00:49:43;6.80;;;3.97;;
25381;SDS011;16307;42.896;20.874;2023-07-30T00:52:29;5.80;;;4.13;;
25381;SDS011;16307;42.896;20.874;2023-07-30T00:55:15;5.97;;;4.10;;
25381;SDS011;16307;42.896;20.874;2023-07-30T00:58:02;6.93;;;4.45;;
25381;SDS011;16307;42.896;20.874;2023-07-30T01:00:50;7.10;;;4.13;;
25381;SDS011;16307;42.896;20.874;2023-07-30T01:03:38;6.68;;;3.78;;
25381;SDS011;16307;42.896;20.874;2023-07-30T01:06:24;4.82;;;3.90;;
25381;SDS011;16307;42.896;20.874;2023-07-30T01:09:10;6.88;;;4.43;;
25381;SDS011;16307;42.896;20.874;2023-07-30T01:11:57;5.65;;;3.42;;
25381;SDS011;16307;42.896;20.874;2023-07-30T01:14:44;6.75;;;4.10;;
25381;SDS011;16307;42.896;20.874;2023-07-30T01:17:31;5.70;;;4.20;;
25381;SDS011;16307;42.896;20.874;2023-07-30T01:20:17;5.35;;;3.65;;
25381;SDS011;16307;42.896;20.874;2023-07-30T01:23:03;5.63;;;3.75;;
25381;SDS011;16307;42.896;20.874;2023-07-30T01:25:50;5.75;;;4.00;;
25381;SDS011;16307;42.896;20.874;2023-07-30T01:28:49;8.35;;;4.40;;
25381;SDS011;16307;42.896;20.874;2023-07-30T01:31:37;8.60;;;4.10;;
25381;SDS011;16307;42.896;20.874;2023-07-30T01:34:25;6.85;;;4.15;;
25381;SDS011;16307;42.896;20.874;2023-07-30T01:37:13;5.85;;;4.40;;
25381;SDS011;16307;42.896;20.874;2023-07-30T01:40:00;5.75;;;4.13;;
25381;SDS011;16307;42.896;20.874;2023-07-30T01:42:48;5.32;;;3.88;;
25381;SDS011;16307;42.896;20.874;2023-07-30T01:45:36;7.15;;;4.10;;
25381;SDS011;16307;42.896;20.874;2023-07-30T01:48:22;6.43;;;3.97;;
25381;SDS011;16307;42.896;20.874;2023-07-30T01:51:08;7.22;;;4.05;;
25381;SDS011;16307;42.896;20.874;2023-07-30T01:53:54;5.93;;;4.18;;
25381;SDS011;16307;42.896;20.874;2023-07-30T01:56:40;7.95;;;4.15;;
25381;SDS011;16307;42.896;20.874;2023-07-30T01:59:26;7.25;;;4.40;;
25381;SDS011;16307;42.896;20.874;2023-07-30T02:02:12;4.43;;;3.70;;
25381;SDS011;16307;42.896;20.874;2023-07-30T02:04:58;6.88;;;4.43;;
25381;SDS011;16307;42.896;20.874;2023-07-30T02:07:44;7.18;;;4.40;;
25381;SDS011;16307;42.896;20.874;2023-07-30T02:10:30;5.45;;;3.80;;
25381;SDS011;16307;42.896;20.874;2023-07-30T02:13:16;8.20;;;3.60;;
25381;SDS011;16307;42.896;20.874;2023-07-30T02:16:02;6.00;;;3.90;;
25381;SDS011;16307;42.896;20.874;2023-07-30T02:18:48;6.75;;;3.72;;
25381;SDS011;16307;42.896;20.874;2023-07-30T02:21:34;6.07;;;4.07;;
25381;SDS011;16307;42.896;20.874;2023-07-30T02:24:25;6.35;;;4.20;;
25381;SDS011;16307;42.896;20.874;2023-07-30T02:27:11;6.57;;;4.28;;
25381;SDS011;16307;42.896;20.874;2023-07-30T02:29:57;6.93;;;4.18;;
25381;SDS011;16307;42.896;20.874;2023-07-30T02:32:43;6.63;;;3.78;;
25381;SDS011;16307;42.896;20.874;2023-07-30T02:35:29;5.18;;;4.15;;
25381;SDS011;16307;42.896;20.874;2023-07-30T02:38:15;6.63;;;3.83;;
25381;SDS011;16307;42.896;20.874;2023-07-30T02:41:01;7.15;;;4.03;;
25381;SDS011;16307;42.896;20.874;2023-07-30T02:43:47;5.20;;;3.72;;
25381;SDS011;16307;42.896;20.874;2023-07-30T02:46:33;6.57;;;3.88;;
25381;SDS011;16307;42.896;20.874;2023-07-30T02:49:19;5.40;;;3.83;;
25381;SDS011;16307;42.896;20.874;2023-07-30T02:52:05;5.55;;;4.20;;
25381;SDS011;16307;42.896;20.874;2023-07-30T02:54:52;6.78;;;4.22;;
25381;SDS011;16307;42.896;20.874;2023-07-30T02:57:38;6.38;;;3.95;;
25381;SDS011;16307;42.896;20.874;2023-07-30T03:00:24;6.25;;;4.03;;
25381;SDS011;16307;42.896;20.874;2023-07-30T03:03:10;5.68;;;3.70;;
25381;SDS011;16307;42.896;20.874;2023-07-30T03:05:56;5.97;;;4.07;;
25381;SDS011;16307;42.896;20.874;2023-07-30T03:08:45;5.22;;;3.95;;
25381;SDS011;16307;42.896;20.874;2023-07-30T03:11:31;4.78;;;3.80;;
25381;SDS011;16307;42.896;20.874;2023-07-30T03:14:17;7.53;;;4.32;;
25381;SDS011;16307;42.896;20.874;2023-07-30T03:17:06;4.75;;;3.92;;
25381;SDS011;16307;42.896;20.874;2023-07-30T03:19:52;6.07;;;4.05;;
25381;SDS011;16307;42.896;20.874;2023-07-30T03:22:38;5.70;;;4.25;;
25381;SDS011;16307;42.896;20.874;2023-07-30T03:25:24;8.10;;;4.20;;
25381;SDS011;16307;42.896;20.874;2023-07-30T03:28:10;5.72;;;3.80;;
25381;SDS011;16307;42.896;20.874;2023-07-30T03:30:56;6.50;;;3.90;;
25381;SDS011;16307;42.896;20.874;2023-07-30T03:33:42;7.55;;;3.72;;
25381;SDS011;16307;42.896;20.874;2023-07-30T03:36:31;9.18;;;4.10;;
25381;SDS011;16307;42.896;20.874;2023-07-30T03:39:17;7.15;;;4.28;;
25381;SDS011;16307;42.896;20.874;2023-07-30T03:42:03;7.43;;;4.22;;
25381;SDS011;16307;42.896;20.874;2023-07-30T03:44:50;7.32;;;4.15;;
25381;SDS011;16307;42.896;20.874;2023-07-30T03:47:36;6.80;;;4.10;;
25381;SDS011;16307;42.896;20.874;2023-07-30T03:50:22;8.85;;;4.53;;
25381;SDS011;16307;42.896;20.874;2023-07-30T03:53:08;5.28;;;3.90;;
25381;SDS011;16307;42.896;20.874;2023-07-30T03:55:55;6.15;;;4.00;;
25381;SDS011;16307;42.896;20.874;2023-07-30T03:58:41;7.90;;;4.47;;
25381;SDS011;16307;42.896;20.874;2023-07-30T04:01:26;6.50;;;4.25;;
25381;SDS011;16307;42.896;20.874;2023-07-30T04:04:14;8.57;;;4.47;;
25381;SDS011;16307;42.896;20.874;2023-07-30T04:07:00;6.43;;;3.83;;
25381;SDS011;16307;42.896;20.874;2023-07-30T04:09:46;8.02;;;4.00;;
25381;SDS011;16307;42.896;20.874;2023-07-30T04:12:34;5.90;;;4.10;;
25381;SDS011;16307;42.896;20.874;2023-07-30T04:15:20;7.07;;;4.25;;
25381;SDS011;16307;42.896;20.874;2023-07-30T04:18:07;7.10;;;4.38;;
25381;SDS011;16307;42.896;20.874;2023-07-30T04:20:54;8.35;;;4.80;;
25381;SDS011;16307;42.896;20.874;2023-07-30T04:23:41;8.07;;;4.63;;
25381;SDS011;16307;42.896;20.874;2023-07-30T04:26:27;5.25;;;4.00;;
25381;SDS011;16307;42.896;20.874;2023-07-30T04:29:13;8.60;;;4.78;;
25381;SDS011;16307;42.896;20.874;2023-07-30T04:32:01;7.22;;;4.63;;
25381;SDS011;16307;42.896;20.874;2023-07-30T04:34:47;7.40;;;4.50;;
25381;SDS011;16307;42.896;20.874;2023-07-30T04:37:34;7.38;;;5.18;;
25381;SDS011;16307;42.896;20.874;2023-07-30T04:40:20;6.03;;;4.70;;
25381;SDS011;16307;42.896;20.874;2023-07-30T04:43:05;5.95;;;4.82;;
25381;SDS011;16307;42.896;20.874;2023-07-30T04:45:52;7.22;;;5.20;;
25381;SDS011;16307;42.896;20.874;2023-07-30T04:48:40;6.63;;;5.10;;
25381;SDS011;16307;42.896;20.874;2023-07-30T04:51:27;5.30;;;4.10;;
25381;SDS011;16307;42.896;20.874;2023-07-30T04:54:13;5.15;;;4.00;;
25381;SDS011;16307;42.896;20.874;2023-07-30T04:56:59;9.80;;;4.28;;
25381;SDS011;16307;42.896;20.874;2023-07-30T04:59:45;7.18;;;4.10;;
25381;SDS011;16307;42.896;20.874;2023-07-30T05:02:31;6.15;;;4.70;;
25381;SDS011;16307;42.896;20.874;2023-07-30T05:05:17;7.18;;;4.50;;
25381;SDS011;16307;42.896;20.874;2023-07-30T05:08:04;7.90;;;5.35;;
25381;SDS011;16307;42.896;20.874;2023-07-30T05:10:50;8.98;;;5.85;;
25381;SDS011;16307;42.896;20.874;2023-07-30T05:13:36;9.25;;;4.68;;
25381;SDS011;16307;42.896;20.874;2023-07-30T05:16:22;7.32;;;5.18;;
25381;SDS011;16307;42.896;20.874;2023-07-30T05:19:08;9.32;;;4.75;;
25381;SDS011;16307;42.896;20.874;2023-07-30T05:21:54;7.68;;;4.57;;
25381;SDS011;16307;42.896;20.874;2023-07-30T05:24:40;9.10;;;5.15;;
25381;SDS011;16307;42.896;20.874;2023-07-30T05:27:27;8.02;;;5.13;;
25381;SDS011;16307;42.896;20.874;2023-07-30T05:30:14;8.75;;;4.82;;
25381;SDS011;16307;42.896;20.874;2023-07-30T05:33:00;7.50;;;4.65;;
25381;SDS011;16307;42.896;20.874;2023-07-30T05:35:46;5.68;;;4.20;;
25381;SDS011;16307;42.896;20.874;2023-07-30T05:38:33;9.65;;;4.32;;
25381;SDS011;16307;42.896;20.874;2023-07-30T05:41:19;6.97;;;4.65;;
25381;SDS011;16307;42.896;20.874;2023-07-30T05:44:07;7.68;;;4.80;;
25381;SDS011;16307;42.896;20.874;2023-07-30T05:46:53;8.23;;;5.13;;
25381;SDS011;16307;42.896;20.874;2023-07-30T05:49:39;6.65;;;4.50;;
25381;SDS011;16307;42.896;20.874;2023-07-30T05:52:25;7.57;;;4.15;;
25381;SDS011;16307;42.896;20.874;2023-07-30T05:55:11;6.47;;;4.43;;
25381;SDS011;16307;42.896;20.874;2023-07-30T05:57:57;8.00;;;4.97;;
25381;SDS011;16307;42.896;20.874;2023-07-30T06:00:44;7.80;;;5.10;;
25381;SDS011;16307;42.896;20.874;2023-07-30T06:03:29;5.25;;;4.45;;
25381;SDS011;16307;42.896;20.874;2023-07-30T06:06:16;9.43;;;4.88;;
25381;SDS011;16307;42.896;20.874;2023-07-30T06:09:02;7.97;;;4.63;;
25381;SDS011;16307;42.896;20.874;2023-07-30T06:11:48;10.65;;;4.63;;
25381;SDS011;16307;42.896;20.874;2023-07-30T06:14:34;14.40;;;7.93;;
25381;SDS011;16307;42.896;20.874;2023-07-30T06:17:20;15.20;;;8.20;;
25381;SDS011;16307;42.896;20.874;2023-07-30T06:20:06;16.20;;;8.73;;
25381;SDS011;16307;42.896;20.874;2023-07-30T06:22:53;16.73;;;8.63;;
25381;SDS011;16307;42.896;20.874;2023-07-30T06:25:39;11.20;;;5.30;;
25381;SDS011;16307;42.896;20.874;2023-07-30T06:28:25;8.90;;;5.55;;
25381;SDS011;16307;42.896;20.874;2023-07-30T06:31:11;7.20;;;4.85;;
25381;SDS011;16307;42.896;20.874;2023-07-30T06:33:57;10.32;;;5.60;;
25381;SDS011;16307;42.896;20.874;2023-07-30T06:36:43;9.65;;;5.30;;
25381;SDS011;16307;42.896;20.874;2023-07-30T06:39:29;7.03;;;5.07;;
25381;SDS011;16307;42.896;20.874;2023-07-30T06:42:15;10.32;;;4.90;;
25381;SDS011;16307;42.896;20.874;2023-07-30T06:45:01;7.18;;;4.85;;
25381;SDS011;16307;42.896;20.874;2023-07-30T06:47:47;6.80;;;4.95;;
25381;SDS011;16307;42.896;20.874;2023-07-30T06:50:33;6.72;;;5.20;;
25381;SDS011;16307;42.896;20.874;2023-07-30T06:53:19;11.88;;;7.05;;
25381;SDS011;16307;42.896;20.874;2023-07-30T06:56:05;10.50;;;5.53;;
25381;SDS011;16307;42.896;20.874;2023-07-30T06:58:51;9.02;;;5.68;;
25381;SDS011;16307;42.896;20.874;2023-07-30T07:01:37;7.70;;;4.60;;
25381;SDS011;16307;42.896;20.874;2023-07-30T07:04:23;8.05;;;4.53;;
25381;SDS011;16307;42.896;20.874;2023-07-30T07:07:09;9.85;;;4.90;;
25381;SDS011;16307;42.896;20.874;2023-07-30T07:09:55;7.10;;;5.60;;
25381;SDS011;16307;42.896;20.874;2023-07-30T07:12:41;9.23;;;4.53;;
25381;SDS011;16307;42.896;20.874;2023-07-30T07:15:27;9.88;;;5.03;;
25381;SDS011;16307;42.896;20.874;2023-07-30T07:18:14;9.43;;;6.05;;
25381;SDS011;16307;42.896;20.874;2023-07-30T07:20:59;7.93;;;5.60;;
25381;SDS011;16307;42.896;20.874;2023-07-30T07:23:45;7.90;;;5.18;;
25381;SDS011;16307;42.896;20.874;2023-07-30T07:26:31;7.90;;;5.63;;
25381;SDS011;16307;42.896;20.874;2023-07-30T07:29:18;9.98;;;5.22;;
25381;SDS011;16307;42.896;20.874;2023-07-30T07:32:04;4.90;;;4.05;;
25381;SDS011;16307;42.896;20.874;2023-07-30T07:34:50;6.78;;;5.10;;
25381;SDS011;16307;42.896;20.874;2023-07-30T07:37:36;8.50;;;5.78;;
25381;SDS011;16307;42.896;20.874;2023-07-30T07:40:22;6.55;;;4.38;;
25381;SDS011;16307;42.896;20.874;2023-07-30T07:43:09;8.88;;;6.10;;
25381;SDS011;16307;42.896;20.874;2023-07-30T07:45:55;8.85;;;5.22;;
25381;SDS011;16307;42.896;20.874;2023-07-30T07:48:42;9.20;;;4.60;;
25381;SDS011;16307;42.896;20.874;2023-07-30T07:51:29;6.60;;;4.32;;
25381;SDS011;16307;42.896;20.874;2023-07-30T07:54:15;5.30;;;4.20;;
25381;SDS011;16307;42.896;20.874;2023-07-30T07:57:01;9.82;;;4.30;;
25381;SDS011;16307;42.896;20.874;2023-07-30T07:59:47;6.53;;;4.30;;
25381;SDS011;16307;42.896;20.874;2023-07-30T08:02:33;8.15;;;4.70;;
25381;SDS011;16307;42.896;20.874;2023-07-30T08:05:20;8.30;;;4.95;;
25381;SDS011;16307;42.896;20.874;2023-07-30T08:08:06;6.05;;;4.53;;
25381;SDS011;16307;42.896;20.874;2023-07-30T08:10:52;8.65;;;4.65;;
25381;SDS011;16307;42.896;20.874;2023-07-30T08:13:38;12.45;;;4.40;;
25381;SDS011;16307;42.896;20.874;2023-07-30T08:16:25;8.93;;;4.85;;
25381;SDS011;16307;42.896;20.874;2023-07-30T08:19:11;10.13;;;4.95;;
25381;SDS011;16307;42.896;20.874;2023-07-30T08:21:57;10.15;;;4.82;;
25381;SDS011;16307;42.896;20.874;2023-07-30T08:24:44;13.25;;;4.78;;
25381;SDS011;16307;42.896;20.874;2023-07-30T08:27:30;13.40;;;4.75;;
25381;SDS011;16307;42.896;20.874;2023-07-30T08:30:16;10.50;;;5.05;;
25381;SDS011;16307;42.896;20.874;2023-07-30T08:33:02;17.42;;;5.70;;
25381;SDS011;16307;42.896;20.874;2023-07-30T08:35:48;11.23;;;5.47;;
25381;SDS011;16307;42.896;20.874;2023-07-30T08:38:34;18.13;;;7.45;;
25381;SDS011;16307;42.896;20.874;2023-07-30T08:41:20;24.42;;;7.10;;
25381;SDS011;16307;42.896;20.874;2023-07-30T08:44:06;15.70;;;6.15;;
25381;SDS011;16307;42.896;20.874;2023-07-30T08:46:53;20.20;;;6.43;;
25381;SDS011;16307;42.896;20.874;2023-07-30T08:49:40;17.27;;;6.20;;
25381;SDS011;16307;42.896;20.874;2023-07-30T08:52:26;14.75;;;4.78;;
25381;SDS011;16307;42.896;20.874;2023-07-30T08:55:15;14.88;;;5.20;;
25381;SDS011;16307;42.896;20.874;2023-07-30T08:58:03;19.33;;;5.82;;
25381;SDS011;16307;42.896;20.874;2023-07-30T09:00:50;12.68;;;5.28;;
25381;SDS011;16307;42.896;20.874;2023-07-30T09:03:38;11.40;;;5.70;;
25381;SDS011;16307;42.896;20.874;2023-07-30T09:06:26;10.43;;;5.05;;
25381;SDS011;16307;42.896;20.874;2023-07-30T09:09:12;11.02;;;5.32;;
25381;SDS011;16307;42.896;20.874;2023-07-30T09:11:59;9.95;;;5.20;;
25381;SDS011;16307;42.896;20.874;2023-07-30T09:14:46;10.52;;;5.13;;
25381;SDS011;16307;42.896;20.874;2023-07-30T09:17:37;10.95;;;5.30;;
25381;SDS011;16307;42.896;20.874;2023-07-30T09:20:23;9.52;;;5.25;;
25381;SDS011;16307;42.896;20.874;2023-07-30T09:23:10;15.77;;;6.25;;
25381;SDS011;16307;42.896;20.874;2023-07-30T09:25:57;8.68;;;5.22;;
25381;SDS011;16307;42.896;20.874;2023-07-30T09:28:44;15.88;;;5.43;;
25381;SDS011;16307;42.896;20.874;2023-07-30T09:31:31;13.25;;;5.72;;
25381;SDS011;16307;42.896;20.874;2023-07-30T09:34:18;11.02;;;5.50;;
25381;SDS011;16307;42.896;20.874;2023-07-30T09:37:04;12.30;;;6.22;;
25381;SDS011;16307;42.896;20.874;2023-07-30T09:39:50;8.52;;;4.93;;
25381;SDS011;16307;42.896;20.874;2023-07-30T09:42:36;12.75;;;5.97;;
25381;SDS011;16307;42.896;20.874;2023-07-30T09:45:25;10.55;;;4.97;;
25381;SDS011;16307;42.896;20.874;2023-07-30T09:48:12;7.75;;;4.85;;
25381;SDS011;16307;42.896;20.874;2023-07-30T09:51:00;9.32;;;4.60;;
25381;SDS011;16307;42.896;20.874;2023-07-30T09:53:48;7.90;;;4.00;;
25381;SDS011;16307;42.896;20.874;2023-07-30T09:56:39;6.82;;;4.38;;
25381;SDS011;16307;42.896;20.874;2023-07-30T09:59:26;8.38;;;4.55;;
25381;SDS011;16307;42.896;20.874;2023-07-30T10:02:12;7.28;;;4.22;;
25381;SDS011;16307;42.896;20.874;2023-07-30T10:04:59;8.93;;;4.30;;
25381;SDS011;16307;42.896;20.874;2023-07-30T10:07:51;8.45;;;3.83;;
25381;SDS011;16307;42.896;20.874;2023-07-30T10:10:40;6.43;;;3.90;;
25381;SDS011;16307;42.896;20.874;2023-07-30T10:13:27;9.98;;;4.82;;
25381;SDS011;16307;42.896;20.874;2023-07-30T10:16:14;7.35;;;4.88;;
25381;SDS011;16307;42.896;20.874;2023-07-30T10:19:00;9.00;;;5.10;;
25381;SDS011;16307;42.896;20.874;2023-07-30T10:21:47;7.10;;;4.03;;
25381;SDS011;16307;42.896;20.874;2023-07-30T10:24:34;8.05;;;4.85;;
25381;SDS011;16307;42.896;20.874;2023-07-30T10:27:22;8.38;;;4.38;;
25381;SDS011;16307;42.896;20.874;2023-07-30T10:33:09;6.40;;;4.03;;
25381;SDS011;16307;42.896;20.874;2023-07-30T10:35:55;7.55;;;4.47;;
25381;SDS011;16307;42.896;20.874;2023-07-30T10:38:41;6.03;;;4.43;;
25381;SDS011;16307;42.896;20.874;2023-07-30T10:41:28;6.72;;;4.15;;
25381;SDS011;16307;42.896;20.874;2023-07-30T10:44:32;6.25;;;3.90;;
25381;SDS011;16307;42.896;20.874;2023-07-30T10:47:19;6.78;;;3.83;;
25381;SDS011;16307;42.896;20.874;2023-07-30T10:53:08;8.52;;;3.92;;
25381;SDS011;16307;42.896;20.874;2023-07-30T10:55:56;10.40;;;4.85;;
25381;SDS011;16307;42.896;20.874;2023-07-30T10:58:48;5.97;;;4.00;;
25381;SDS011;16307;42.896;20.874;2023-07-30T11:01:39;7.85;;;4.32;;
25381;SDS011;16307;42.896;20.874;2023-07-30T11:04:29;8.32;;;4.38;;
25381;SDS011;16307;42.896;20.874;2023-07-30T11:07:20;7.40;;;4.30;;
25381;SDS011;16307;42.896;20.874;2023-07-30T11:10:06;10.30;;;4.55;;
25381;SDS011;16307;42.896;20.874;2023-07-30T11:12:53;9.05;;;4.75;;
25381;SDS011;16307;42.896;20.874;2023-07-30T11:15:40;7.72;;;4.47;;
25381;SDS011;16307;42.896;20.874;2023-07-30T11:18:30;9.75;;;4.10;;
25381;SDS011;16307;42.896;20.874;2023-07-30T11:21:17;7.40;;;4.38;;
25381;SDS011;16307;42.896;20.874;2023-07-30T11:24:04;6.80;;;3.67;;
25381;SDS011;16307;42.896;20.874;2023-07-30T11:26:57;7.13;;;3.95;;
25381;SDS011;16307;42.896;20.874;2023-07-30T11:29:53;6.70;;;3.50;;
25381;SDS011;16307;42.896;20.874;2023-07-30T11:32:41;8.75;;;3.47;;
25381;SDS011;16307;42.896;20.874;2023-07-30T11:35:28;6.10;;;3.22;;
25381;SDS011;16307;42.896;20.874;2023-07-30T11:38:14;7.35;;;3.97;;
25381;SDS011;16307;42.896;20.874;2023-07-30T11:41:01;9.15;;;4.28;;
25381;SDS011;16307;42.896;20.874;2023-07-30T11:43:47;4.70;;;3.38;;
25381;SDS011;16307;42.896;20.874;2023-07-30T11:46:33;7.10;;;4.18;;
25381;SDS011;16307;42.896;20.874;2023-07-30T11:49:22;8.80;;;3.80;;
25381;SDS011;16307;42.896;20.874;2023-07-30T11:52:09;6.13;;;3.83;;
25381;SDS011;16307;42.896;20.874;2023-07-30T11:54:59;6.28;;;3.60;;
25381;SDS011;16307;42.896;20.874;2023-07-30T11:57:49;7.05;;;4.03;;
25381;SDS011;16307;42.896;20.874;2023-07-30T12:00:36;10.32;;;3.70;;
25381;SDS011;16307;42.896;20.874;2023-07-30T12:03:23;6.50;;;3.17;;
25381;SDS011;16307;42.896;20.874;2023-07-30T12:06:12;6.57;;;3.70;;
25381;SDS011;16307;42.896;20.874;2023-07-30T12:08:59;9.15;;;4.07;;
25381;SDS011;16307;42.896;20.874;2023-07-30T12:17:34;5.95;;;3.42;;
25381;SDS011;16307;42.896;20.874;2023-07-30T12:20:20;6.55;;;4.07;;
25381;SDS011;16307;42.896;20.874;2023-07-30T12:23:07;7.88;;;3.75;;
25381;SDS011;16307;42.896;20.874;2023-07-30T12:25:53;7.88;;;4.60;;
25381;SDS011;16307;42.896;20.874;2023-07-30T12:28:40;9.98;;;4.38;;
25381;SDS011;16307;42.896;20.874;2023-07-30T12:31:26;6.40;;;3.75;;
25381;SDS011;16307;42.896;20.874;2023-07-30T12:34:14;12.48;;;5.03;;
25381;SDS011;16307;42.896;20.874;2023-07-30T12:37:00;8.15;;;3.80;;
25381;SDS011;16307;42.896;20.874;2023-07-30T12:39:47;7.47;;;4.40;;
25381;SDS011;16307;42.896;20.874;2023-07-30T12:42:33;8.93;;;4.60;;
25381;SDS011;16307;42.896;20.874;2023-07-30T12:45:19;9.85;;;4.30;;
25381;SDS011;16307;42.896;20.874;2023-07-30T12:48:05;8.55;;;4.28;;
25381;SDS011;16307;42.896;20.874;2023-07-30T12:50:54;6.32;;;3.22;;
25381;SDS011;16307;42.896;20.874;2023-07-30T12:53:42;7.22;;;3.80;;
25381;SDS011;16307;42.896;20.874;2023-07-30T12:56:28;6.60;;;3.78;;
25381;SDS011;16307;42.896;20.874;2023-07-30T12:59:15;6.68;;;3.72;;
25381;SDS011;16307;42.896;20.874;2023-07-30T13:02:01;7.47;;;4.20;;
25381;SDS011;16307;42.896;20.874;2023-07-30T13:04:48;8.60;;;3.47;;
25381;SDS011;16307;42.896;20.874;2023-07-30T13:07:35;7.00;;;3.70;;
25381;SDS011;16307;42.896;20.874;2023-07-30T13:10:21;5.75;;;3.40;;
25381;SDS011;16307;42.896;20.874;2023-07-30T13:13:07;5.28;;;3.97;;
25381;SDS011;16307;42.896;20.874;2023-07-30T13:15:53;4.97;;;3.40;;
25381;SDS011;16307;42.896;20.874;2023-07-30T13:18:43;6.68;;;3.30;;
25381;SDS011;16307;42.896;20.874;2023-07-30T13:21:30;5.20;;;3.85;;
25381;SDS011;16307;42.896;20.874;2023-07-30T13:24:17;7.32;;;4.30;;
25381;SDS011;16307;42.896;20.874;2023-07-30T13:27:03;8.93;;;3.92;;
25381;SDS011;16307;42.896;20.874;2023-07-30T13:29:49;7.20;;;3.92;;
25381;SDS011;16307;42.896;20.874;2023-07-30T13:32:35;7.07;;;5.35;;
25381;SDS011;16307;42.896;20.874;2023-07-30T13:35:21;8.23;;;3.88;;
25381;SDS011;16307;42.896;20.874;2023-07-30T13:38:07;4.32;;;3.10;;
25381;SDS011;16307;42.896;20.874;2023-07-30T13:40:53;6.53;;;3.38;;
25381;SDS011;16307;42.896;20.874;2023-07-30T13:43:40;9.43;;;2.95;;
25381;SDS011;16307;42.896;20.874;2023-07-30T13:46:26;5.35;;;2.88;;
25381;SDS011;16307;42.896;20.874;2023-07-30T13:49:12;3.85;;;2.90;;
25381;SDS011;16307;42.896;20.874;2023-07-30T13:51:58;6.53;;;3.25;;
25381;SDS011;16307;42.896;20.874;2023-07-30T13:54:44;4.93;;;2.90;;
25381;SDS011;16307;42.896;20.874;2023-07-30T13:57:31;6.32;;;2.67;;
25381;SDS011;16307;42.896;20.874;2023-07-30T14:00:20;5.88;;;3.10;;
25381;SDS011;16307;42.896;20.874;2023-07-30T14:03:06;7.80;;;2.95;;
25381;SDS011;16307;42.896;20.874;2023-07-30T14:05:55;3.08;;;2.70;;
25381;SDS011;16307;42.896;20.874;2023-07-30T14:08:41;4.00;;;3.17;;
25381;SDS011;16307;42.896;20.874;2023-07-30T14:11:27;5.38;;;3.08;;
25381;SDS011;16307;42.896;20.874;2023-07-30T14:14:13;7.88;;;3.50;;
25381;SDS011;16307;42.896;20.874;2023-07-30T14:16:59;6.50;;;2.47;;
25381;SDS011;16307;42.896;20.874;2023-07-30T14:19:52;7.97;;;2.92;;
25381;SDS011;16307;42.896;20.874;2023-07-30T14:22:38;5.68;;;3.22;;
25381;SDS011;16307;42.896;20.874;2023-07-30T14:25:25;7.10;;;2.80;;
25381;SDS011;16307;42.896;20.874;2023-07-30T14:28:10;5.10;;;2.90;;
25381;SDS011;16307;42.896;20.874;2023-07-30T14:30:56;7.68;;;3.25;;
25381;SDS011;16307;42.896;20.874;2023-07-30T14:33:43;3.47;;;2.92;;
25381;SDS011;16307;42.896;20.874;2023-07-30T14:36:30;3.88;;;2.53;;
25381;SDS011;16307;42.896;20.874;2023-07-30T14:39:16;6.18;;;2.95;;
25381;SDS011;16307;42.896;20.874;2023-07-30T14:42:02;4.05;;;2.45;;
25381;SDS011;16307;42.896;20.874;2023-07-30T14:44:49;3.78;;;2.55;;
25381;SDS011;16307;42.896;20.874;2023-07-30T14:47:35;5.43;;;2.60;;
25381;SDS011;16307;42.896;20.874;2023-07-30T14:50:21;4.35;;;2.90;;
25381;SDS011;16307;42.896;20.874;2023-07-30T14:53:08;7.28;;;2.85;;
25381;SDS011;16307;42.896;20.874;2023-07-30T14:55:55;6.70;;;2.90;;
25381;SDS011;16307;42.896;20.874;2023-07-30T14:58:42;3.90;;;2.97;;
25381;SDS011;16307;42.896;20.874;2023-07-30T15:01:28;9.40;;;3.70;;
25381;SDS011;16307;42.896;20.874;2023-07-30T15:04:15;4.45;;;3.00;;
25381;SDS011;16307;42.896;20.874;2023-07-30T15:07:01;8.13;;;3.92;;
25381;SDS011;16307;42.896;20.874;2023-07-30T15:09:47;6.10;;;2.92;;
25381;SDS011;16307;42.896;20.874;2023-07-30T15:12:33;6.10;;;3.10;;
25381;SDS011;16307;42.896;20.874;2023-07-30T15:15:19;7.35;;;3.63;;
25381;SDS011;16307;42.896;20.874;2023-07-30T15:18:05;6.40;;;2.65;;
25381;SDS011;16307;42.896;20.874;2023-07-30T15:20:54;4.50;;;2.47;;
25381;SDS011;16307;42.896;20.874;2023-07-30T15:23:45;4.60;;;2.95;;
25381;SDS011;16307;42.896;20.874;2023-07-30T15:26:31;5.80;;;3.03;;
25381;SDS011;16307;42.896;20.874;2023-07-30T15:29:18;4.57;;;2.85;;
25381;SDS011;16307;42.896;20.874;2023-07-30T15:32:04;5.20;;;3.03;;
25381;SDS011;16307;42.896;20.874;2023-07-30T15:34:50;5.35;;;2.85;;
25381;SDS011;16307;42.896;20.874;2023-07-30T15:37:37;5.35;;;2.97;;
25381;SDS011;16307;42.896;20.874;2023-07-30T15:40:24;3.88;;;2.83;;
25381;SDS011;16307;42.896;20.874;2023-07-30T15:43:10;5.00;;;2.63;;
25381;SDS011;16307;42.896;20.874;2023-07-30T15:45:57;4.38;;;2.60;;
25381;SDS011;16307;42.896;20.874;2023-07-30T15:48:47;4.45;;;2.75;;
25381;SDS011;16307;42.896;20.874;2023-07-30T15:51:33;5.45;;;2.70;;
25381;SDS011;16307;42.896;20.874;2023-07-30T15:54:30;5.97;;;2.83;;
25381;SDS011;16307;42.896;20.874;2023-07-30T15:57:24;4.70;;;2.90;;
25381;SDS011;16307;42.896;20.874;2023-07-30T16:00:10;4.82;;;3.10;;
25381;SDS011;16307;42.896;20.874;2023-07-30T16:02:59;3.90;;;2.47;;
25381;SDS011;16307;42.896;20.874;2023-07-30T16:05:49;4.78;;;2.72;;
25381;SDS011;16307;42.896;20.874;2023-07-30T16:08:35;4.43;;;2.80;;
25381;SDS011;16307;42.896;20.874;2023-07-30T16:11:22;4.47;;;2.47;;
25381;SDS011;16307;42.896;20.874;2023-07-30T16:14:08;3.40;;;2.25;;
25381;SDS011;16307;42.896;20.874;2023-07-30T16:16:54;5.20;;;2.50;;
25381;SDS011;16307;42.896;20.874;2023-07-30T16:19:40;4.28;;;2.90;;
25381;SDS011;16307;42.896;20.874;2023-07-30T16:22:27;4.63;;;2.70;;
25381;SDS011;16307;42.896;20.874;2023-07-30T16:25:13;5.63;;;2.35;;
25381;SDS011;16307;42.896;20.874;2023-07-30T16:27:59;5.38;;;2.70;;
25381;SDS011;16307;42.896;20.874;2023-07-30T16:30:46;5.07;;;2.45;;
25381;SDS011;16307;42.896;20.874;2023-07-30T16:33:32;6.28;;;2.35;;
25381;SDS011;16307;42.896;20.874;2023-07-30T16:36:18;4.80;;;2.70;;
25381;SDS011;16307;42.896;20.874;2023-07-30T16:39:05;4.55;;;2.50;;
25381;SDS011;16307;42.896;20.874;2023-07-30T16:41:52;7.03;;;3.00;;